Time;durP1;ratioP1;P1;durP2;ratioP2;P2;SDS_P1;SDS_P2;PMS_P1;PMS_P2;Temp;Humidity;BMP_temperature;BMP_pressure;BME280_temperature;BME280_humidity;BME280_pressure;Samples;Min_cycle;Max_cycle;Signal;HPM_P1;HPM_P2
2022/10/31 00:00:07;;;;;;;20.25;10.82;;;;;;;15.02;88.91;102087.72;5031817;28;20026;-56
2022/10/31 00:02:32;;;;;;;15.48;10.02;;;;;;;14.99;88.92;102087.66;5030470;28;20087;-56
2022/10/31 00:04:58;;;;;;;20.45;11.07;;;;;;;15.02;89.00;102092.91;5039667;28;20045;-56
2022/10/31 00:07:23;;;;;;;16.98;10.27;;;;;;;14.97;88.62;102096.19;5037135;28;20040;-56
2022/10/31 00:09:48;;;;;;;15.20;10.13;;;;;;;14.91;89.00;102093.41;5023774;28;20036;-56
2022/10/31 00:12:13;;;;;;;19.00;10.43;;;;;;;14.94;88.59;102099.56;5028841;28;20049;-56
2022/10/31 00:14:39;;;;;;;18.90;10.63;;;;;;;14.91;88.56;102096.88;5027663;28;20037;-55
2022/10/31 00:17:04;;;;;;;17.70;10.32;;;;;;;14.90;88.62;102095.13;5030098;28;20029;-56
2022/10/31 00:19:29;;;;;;;17.50;9.65;;;;;;;14.91;88.54;102099.47;5031701;28;20106;-55
2022/10/31 00:21:55;;;;;;;17.20;10.70;;;;;;;14.88;88.37;102101.97;5037786;28;20128;-54
2022/10/31 00:24:20;;;;;;;18.88;10.40;;;;;;;14.84;88.53;102101.84;5033432;28;20025;-55
2022/10/31 00:26:45;;;;;;;19.80;10.30;;;;;;;14.82;88.61;102101.78;5031008;28;20041;-55
2022/10/31 00:29:12;;;;;;;21.58;10.35;;;;;;;14.82;88.34;102103.50;5032178;28;20360;-54
2022/10/31 00:31:37;;;;;;;15.57;9.57;;;;;;;14.84;88.58;102107.88;5031404;28;20033;-54
2022/10/31 00:34:03;;;;;;;16.38;10.60;;;;;;;14.78;88.76;102107.69;5036791;28;20545;-56
2022/10/31 00:36:28;;;;;;;19.52;10.00;;;;;;;14.82;88.59;102106.97;5043032;28;20452;-56
2022/10/31 00:38:54;;;;;;;19.55;9.80;;;;;;;14.78;88.37;102101.66;5033422;28;20056;-54
2022/10/31 00:41:19;;;;;;;15.75;9.82;;;;;;;14.80;88.34;102098.25;5031572;28;20026;-56
2022/10/31 00:43:45;;;;;;;15.38;9.55;;;;;;;14.74;88.03;102091.22;5030345;28;20033;-54
2022/10/31 00:46:11;;;;;;;16.80;9.57;;;;;;;14.71;88.51;102092.81;5035932;28;20040;-56
2022/10/31 00:48:36;;;;;;;21.48;10.02;;;;;;;14.70;88.54;102088.47;5034118;28;20045;-55
2022/10/31 00:51:02;;;;;;;20.00;9.80;;;;;;;14.68;88.70;102087.53;5032388;28;20497;-56
2022/10/31 00:53:27;;;;;;;19.75;10.07;;;;;;;14.65;88.65;102084.88;5034118;28;20041;-55
2022/10/31 00:55:53;;;;;;;17.20;10.13;;;;;;;14.60;88.66;102087.31;5029311;28;20056;-55
2022/10/31 00:58:18;;;;;;;14.95;8.98;;;;;;;14.56;88.54;102093.25;5031206;28;20037;-56
2022/10/31 01:00:46;;;;;;;19.23;9.75;;;;;;;14.52;88.71;102095.66;5029774;28;20083;-55
2022/10/31 01:03:11;;;;;;;14.60;9.50;;;;;;;14.54;88.70;102091.41;5034014;28;20033;-56
2022/10/31 01:05:36;;;;;;;24.40;9.50;;;;;;;14.51;88.49;102089.63;5037561;28;20108;-56
2022/10/31 01:08:02;;;;;;;16.63;9.75;;;;;;;14.47;88.49;102091.22;5035369;28;20120;-56
2022/10/31 01:10:27;;;;;;;17.08;9.25;;;;;;;14.42;88.68;102087.56;5029062;28;20073;-56
2022/10/31 01:12:53;;;;;;;19.30;9.63;;;;;;;14.48;88.74;102089.50;5030655;28;20108;-54
2022/10/31 01:15:21;;;;;;;18.00;9.82;;;;;;;14.46;89.04;102076.53;5029735;28;20143;-55
2022/10/31 01:17:47;;;;;;;20.45;10.55;;;;;;;14.52;89.00;102080.16;5029543;28;20033;-55
2022/10/31 01:20:14;;;;;;;15.73;9.77;;;;;;;14.50;88.08;102072.34;5032234;28;20098;-55
2022/10/31 01:22:39;;;;;;;17.45;10.45;;;;;;;14.43;88.34;102060.84;5032062;28;20560;-56
2022/10/31 01:25:05;;;;;;;15.43;10.13;;;;;;;14.45;88.40;102064.38;5028694;28;20120;-56
2022/10/31 01:27:31;;;;;;;16.98;10.05;;;;;;;14.43;88.54;102065.16;5035013;28;20040;-56
2022/10/31 01:29:56;;;;;;;16.42;10.10;;;;;;;14.45;88.32;102068.69;5032468;28;20033;-56
2022/10/31 01:32:22;;;;;;;18.75;10.10;;;;;;;14.37;88.31;102070.13;5031212;28;20083;-56
2022/10/31 01:34:47;;;;;;;20.45;11.13;;;;;;;14.32;88.33;102071.69;5033033;28;20100;-56
2022/10/31 01:37:12;;;;;;;16.48;10.38;;;;;;;14.31;88.40;102080.28;5038268;28;20037;-56
2022/10/31 01:39:38;;;;;;;15.77;10.30;;;;;;;14.21;88.76;102069.66;5041981;28;20032;-55
2022/10/31 01:42:03;;;;;;;19.55;10.48;;;;;;;14.24;88.47;102079.22;5026785;28;20029;-55
2022/10/31 01:44:29;;;;;;;16.20;9.73;;;;;;;14.23;89.01;102080.94;5025765;28;20083;-56
2022/10/31 01:46:56;;;;;;;14.05;9.70;;;;;;;14.22;88.49;102073.13;5035503;28;20393;-55
2022/10/31 01:49:31;;;;;;;17.65;11.13;;;;;;;14.18;88.80;102072.13;5030147;28;20057;-56
2022/10/31 01:52:02;;;;;;;15.15;9.77;;;;;;;14.18;88.59;102089.38;5034463;28;20443;-55
2022/10/31 01:54:37;;;;;;;14.50;9.75;;;;;;;14.16;88.53;102085.84;5026128;28;20033;-53
2022/10/31 01:57:06;;;;;;;17.45;9.80;;;;;;;14.10;88.11;102081.38;5028438;28;20067;-55
2022/10/31 01:59:35;;;;;;;14.70;9.80;;;;;;;14.14;88.23;102082.34;5030274;28;20029;-55
2022/10/31 02:02:00;;;;;;;;;;;;;;;14.34;87.18;102078.69;5031595;28;20469;-56
2022/10/31 02:04:27;;;;;;;16.00;9.73;;;;;;;14.09;87.86;102079.59;5026500;28;19929;-56
2022/10/31 02:07:02;;;;;;;15.93;9.52;;;;;;;14.09;88.01;102073.56;5036793;28;20037;-55
2022/10/31 02:09:29;;;;;;;15.95;9.52;;;;;;;14.06;87.93;102069.16;5042391;28;20032;-55
2022/10/31 02:11:57;;;;;;;16.85;9.20;;;;;;;14.03;88.05;102073.34;5030348;28;20041;-55
2022/10/31 02:14:25;;;;;;;15.40;9.33;;;;;;;14.00;88.22;102074.13;5031033;28;20502;-55
2022/10/31 02:16:50;;;;;;;20.45;10.18;;;;;;;13.95;88.15;102071.41;5027952;28;20543;-55
2022/10/31 02:19:25;;;;;;;16.42;10.38;;;;;;;13.92;88.01;102060.94;5033827;28;20116;-56
2022/10/31 02:22:00;;;;;;;23.80;10.02;;;;;;;13.94;88.45;102064.44;5031133;28;20057;-55
2022/10/31 02:24:44;;;;;;;15.27;10.18;;;;;;;14.00;88.22;102063.78;5027987;28;20029;-56
2022/10/31 02:27:27;;;;;;;17.35;10.10;;;;;;;13.91;88.59;102064.34;5030491;28;20029;-56
2022/10/31 02:30:14;;;;;;;15.98;9.50;;;;;;;13.92;88.04;102063.53;5028978;28;20038;-54
2022/10/31 02:32:46;;;;;;;14.35;9.63;;;;;;;13.85;88.06;102060.69;5035162;28;20048;-55
2022/10/31 02:35:30;;;;;;;16.38;10.48;;;;;;;13.80;88.28;102065.69;5028405;28;20443;-56
2022/10/31 02:38:11;;;;;;;15.88;9.35;;;;;;;13.80;87.96;102067.41;5036851;28;20029;-56
2022/10/31 02:40:48;;;;;;;17.23;10.68;;;;;;;13.81;88.27;102067.44;5038562;28;20378;-56
2022/10/31 02:43:22;;;;;;;15.52;9.55;;;;;;;13.76;88.00;102069.00;5027909;28;20048;-56
2022/10/31 02:46:01;;;;;;;14.80;10.30;;;;;;;13.76;88.26;102066.41;5027940;28;20116;-55
2022/10/31 02:48:28;;;;;;;15.88;9.40;;;;;;;13.62;88.05;102059.91;5027635;28;20041;-53
2022/10/31 02:51:02;;;;;;;15.48;9.88;;;;;;;13.65;88.09;102062.56;5027823;28;20524;-56
2022/10/31 02:53:35;;;;;;;17.60;9.80;;;;;;;13.59;87.75;102055.53;5028288;28;20024;-56
2022/10/31 02:56:19;;;;;;;16.73;9.10;;;;;;;13.63;87.62;102059.06;5026063;28;20033;-55
2022/10/31 02:58:53;;;;;;;18.13;9.55;;;;;;;13.62;87.59;102057.31;5026862;28;20037;-56
2022/10/31 03:01:45;;;;;;;15.45;9.70;;;;;;;13.68;87.33;102070.44;5034344;28;20040;-54
2022/10/31 03:04:38;;;;;;;16.20;9.90;;;;;;;13.54;87.23;102057.06;5024750;28;20021;-56
2022/10/31 03:07:37;;;;;;;17.35;9.57;;;;;;;13.55;87.06;102066.56;5031606;28;20567;-55
2022/10/31 03:10:08;;;;;;;16.65;9.68;;;;;;;13.53;87.65;102056.97;5038676;28;20040;-54
2022/10/31 03:12:49;;;;;;;16.92;9.63;;;;;;;13.43;87.34;102067.84;5030614;28;20044;-56
2022/10/31 03:15:35;;;;;;;19.17;10.23;;;;;;;13.52;87.56;102063.84;5028519;28;20028;-56
2022/10/31 03:18:07;;;;;;;17.20;10.07;;;;;;;13.42;88.20;102069.53;5028265;28;20021;-56
2022/10/31 03:20:39;;;;;;;16.25;9.38;;;;;;;13.40;87.84;102072.06;5028371;28;20371;-55
2022/10/31 03:23:10;;;;;;;15.95;9.73;;;;;;;13.35;87.94;102076.19;5029693;28;20024;-56
2022/10/31 03:25:37;;;;;;;15.65;10.32;;;;;;;13.35;88.06;102076.19;5026071;28;20126;-55
2022/10/31 03:28:05;;;;;;;18.13;10.32;;;;;;;13.30;88.41;102067.41;5027537;28;20021;-56
2022/10/31 03:30:35;;;;;;;22.02;10.25;;;;;;;13.31;88.69;102074.31;5032073;28;20044;-56
2022/10/31 03:33:04;;;;;;;15.32;10.10;;;;;;;13.29;88.38;102075.09;5031983;28;20040;-54
2022/10/31 03:35:32;;;;;;;16.23;9.85;;;;;;;13.30;88.09;102069.09;5025271;28;20036;-55
2022/10/31 03:37:59;;;;;;;14.60;10.18;;;;;;;13.24;88.61;102072.34;5030692;28;20485;-55
2022/10/31 03:40:26;;;;;;;16.10;10.55;;;;;;;13.25;88.92;102068.06;5037661;28;20021;-53
2022/10/31 03:42:57;;;;;;;16.33;10.20;;;;;;;13.28;88.89;102070.72;5029390;28;20025;-55
2022/10/31 03:45:26;;;;;;;16.33;10.27;;;;;;;13.29;88.78;102069.94;5032232;28;20022;-56
2022/10/31 03:47:53;;;;;;;16.48;10.40;;;;;;;13.20;88.44;102059.22;5029962;28;20053;-55
2022/10/31 03:50:20;;;;;;;15.13;10.13;;;;;;;13.18;88.49;102069.50;5028435;28;20095;-56
2022/10/31 03:53:04;;;;;;;17.88;10.35;;;;;;;13.21;89.03;102059.31;5035584;28;20034;-56
2022/10/31 03:55:43;;;;;;;16.98;10.55;;;;;;;13.24;89.00;102061.13;5026672;28;20128;-55
2022/10/31 03:58:15;;;;;;;14.32;9.85;;;;;;;13.14;89.29;102065.91;5033384;28;20021;-56
2022/10/31 04:00:44;;;;;;;18.48;10.70;;;;;;;13.08;89.11;102063.13;5032394;28;20481;-55
2022/10/31 04:03:16;;;;;;;16.88;9.38;;;;;;;13.13;88.76;102061.59;5025931;28;20046;-55
2022/10/31 04:05:45;;;;;;;15.82;10.20;;;;;;;13.08;88.37;102065.69;5033199;28;20032;-55
2022/10/31 04:08:15;;;;;;;12.75;9.60;;;;;;;13.12;88.17;102056.38;5036431;28;20029;-55
2022/10/31 04:10:44;;;;;;;18.85;9.73;;;;;;;13.10;88.80;102058.91;5042308;28;20398;-56
2022/10/31 04:13:13;;;;;;;20.52;10.15;;;;;;;13.09;88.79;102064.00;5037122;28;20576;-54
2022/10/31 04:15:41;;;;;;;16.52;9.55;;;;;;;13.00;88.88;102061.97;5035341;28;20027;-55
2022/10/31 04:18:07;;;;;;;13.57;9.70;;;;;;;12.94;88.52;102066.03;5028242;28;20033;-55
2022/10/31 04:20:38;;;;;;;16.35;9.88;;;;;;;12.96;88.49;102062.66;5032418;28;20039;-56
2022/10/31 04:23:04;;;;;;;18.95;9.05;;;;;;;12.94;89.29;102058.28;5031001;28;20509;-57
2022/10/31 04:25:30;;;;;;;16.60;10.15;;;;;;;12.92;88.76;102063.34;5033772;28;20037;-55
2022/10/31 04:27:55;;;;;;;15.50;8.77;;;;;;;12.91;88.38;102060.72;5026783;28;20638;-55
2022/10/31 04:30:21;;;;;;;17.55;9.55;;;;;;;12.87;88.35;102063.22;5029543;28;20045;-56
2022/10/31 04:32:47;;;;;;;20.55;10.20;;;;;;;12.86;88.50;102073.44;5031758;28;20061;-55
2022/10/31 04:35:12;;;;;;;17.60;10.48;;;;;;;12.82;89.04;102059.56;5030538;28;20454;-56
2022/10/31 04:37:38;;;;;;;18.50;10.88;;;;;;;12.83;89.57;102066.47;5032421;28;20086;-55
2022/10/31 04:40:04;;;;;;;20.40;11.13;;;;;;;12.82;89.57;102062.16;5027547;28;20045;-56
2022/10/31 04:42:30;;;;;;;17.70;11.85;;;;;;;12.82;89.77;102067.31;5030668;28;20762;-55
2022/10/31 04:44:55;;;;;;;17.35;10.60;;;;;;;12.78;89.77;102068.00;5030861;28;20036;-55
2022/10/31 04:47:20;;;;;;;18.65;10.60;;;;;;;12.76;89.87;102069.66;5032780;28;20040;-56
2022/10/31 04:49:46;;;;;;;15.98;10.45;;;;;;;12.76;89.84;102068.78;5030824;28;20454;-56
2022/10/31 04:52:11;;;;;;;18.30;10.57;;;;;;;12.76;89.76;102061.03;5031718;28;20437;-55
2022/10/31 04:54:36;;;;;;;22.17;10.80;;;;;;;12.81;90.07;102059.53;5030007;28;22256;-55
2022/10/31 04:57:02;;;;;;;17.35;10.60;;;;;;;12.81;90.25;102062.09;5030678;28;20083;-55
2022/10/31 04:59:27;;;;;;;16.95;10.55;;;;;;;12.78;90.20;102059.38;5028610;28;20030;-55
2022/10/31 05:01:52;;;;;;;16.00;10.30;;;;;;;12.74;89.98;102066.16;5033426;28;20090;-55
2022/10/31 05:04:18;;;;;;;15.23;10.60;;;;;;;12.72;89.57;102061.72;5032578;28;20036;-56
2022/10/31 05:06:43;;;;;;;13.50;10.00;;;;;;;12.69;89.60;102062.50;5035260;28;20094;-56
2022/10/31 05:09:08;;;;;;;17.67;9.93;;;;;;;12.68;89.69;102058.19;5028503;28;20643;-55
2022/10/31 05:11:34;;;;;;;19.88;10.45;;;;;;;12.71;89.98;102057.41;5030085;28;20528;-55
2022/10/31 05:13:59;;;;;;;15.75;10.13;;;;;;;12.68;90.09;102052.09;5032524;28;20091;-54
2022/10/31 05:16:24;;;;;;;14.63;10.63;;;;;;;12.68;90.05;102050.44;5043091;28;20029;-56
2022/10/31 05:18:50;;;;;;;18.80;10.45;;;;;;;12.67;89.72;102040.91;5040062;28;20044;-55
2022/10/31 05:21:15;;;;;;;18.42;10.10;;;;;;;12.62;89.67;102042.47;5030097;28;20026;-54
2022/10/31 05:23:40;;;;;;;16.58;10.50;;;;;;;12.69;89.77;102043.56;5031832;28;20047;-54
2022/10/31 05:26:06;;;;;;;18.70;10.25;;;;;;;12.64;89.60;102043.38;5033629;28;20033;-56
2022/10/31 05:28:31;;;;;;;17.63;10.55;;;;;;;12.62;89.39;102042.47;5029803;28;20028;-55
2022/10/31 05:30:56;;;;;;;18.42;10.45;;;;;;;12.59;89.75;102047.47;5030318;28;20116;-55
2022/10/31 05:33:22;;;;;;;18.20;10.15;;;;;;;12.61;89.95;102044.13;5029950;28;20033;-56
2022/10/31 05:35:47;;;;;;;18.38;10.68;;;;;;;12.63;89.57;102033.88;5026912;28;20136;-54
2022/10/31 05:38:13;;;;;;;21.15;10.43;;;;;;;12.58;90.08;102038.88;5027496;28;20752;-56
2022/10/31 05:40:38;;;;;;;17.13;10.55;;;;;;;12.63;90.43;102033.00;5028570;28;20032;-55
2022/10/31 05:43:03;;;;;;;17.55;11.20;;;;;;;12.62;91.14;102037.28;5028056;28;20060;-55
2022/10/31 05:45:29;;;;;;;21.15;10.98;;;;;;;12.64;91.33;102033.06;5036447;28;20102;-56
2022/10/31 05:47:59;;;;;;;18.42;12.07;;;;;;;12.67;91.48;102035.75;5037162;28;20069;-55
2022/10/31 05:50:26;;;;;;;18.23;11.50;;;;;;;12.65;92.14;102028.78;5029167;28;20103;-56
2022/10/31 05:53:00;;;;;;;21.05;11.80;;;;;;;12.68;92.38;102036.63;5028471;28;20108;-56
2022/10/31 05:55:27;;;;;;;17.85;12.13;;;;;;;12.64;92.14;102035.63;5029118;28;20056;-55
2022/10/31 05:57:53;;;;;;;18.52;11.80;;;;;;;12.66;92.17;102033.97;5024118;28;20110;-55
2022/10/31 06:00:20;;;;;;;19.02;12.50;;;;;;;12.66;92.25;102033.13;5033144;28;20505;-56
2022/10/31 06:02:45;;;;;;;23.67;12.60;;;;;;;12.64;92.46;102021.88;5031580;28;20505;-56
2022/10/31 06:05:11;;;;;;;21.38;12.63;;;;;;;12.69;92.96;102036.69;5029894;28;20029;-55
2022/10/31 06:07:36;;;;;;;22.92;12.40;;;;;;;12.64;92.61;102024.44;5026020;28;20040;-55
2022/10/31 06:10:04;;;;;;;19.02;12.18;;;;;;;12.64;92.86;102033.06;5029640;28;20021;-55
2022/10/31 06:12:30;;;;;;;18.48;11.50;;;;;;;12.68;92.90;102027.22;5029794;28;20752;-56
2022/10/31 06:14:55;;;;;;;22.10;12.63;;;;;;;12.65;93.08;102024.50;5023463;28;20045;-53
2022/10/31 06:17:21;;;;;;;22.00;13.70;;;;;;;12.65;93.11;102021.03;5034313;28;20491;-55
2022/10/31 06:19:46;;;;;;;22.92;13.45;;;;;;;12.60;92.65;102023.44;5037650;28;20061;-56
2022/10/31 06:22:12;;;;;;;23.85;13.35;;;;;;;12.58;93.22;102022.50;5031208;28;20627;-56
2022/10/31 06:24:38;;;;;;;27.73;14.48;;;;;;;12.62;93.88;102019.22;5032972;28;20033;-56
2022/10/31 06:27:03;;;;;;;23.38;13.70;;;;;;;12.61;93.82;102027.75;5032273;28;21331;-56
2022/10/31 06:29:29;;;;;;;22.08;13.23;;;;;;;12.59;93.35;102026.84;5034249;28;20521;-53
2022/10/31 06:31:54;;;;;;;24.48;13.88;;;;;;;12.61;93.37;102025.19;5026999;28;20036;-55
2022/10/31 06:34:19;;;;;;;28.45;14.68;;;;;;;12.58;93.52;102019.94;5029252;28;20033;-56
2022/10/31 06:36:48;;;;;;;26.73;14.88;;;;;;;12.66;93.39;102022.78;5029123;28;20063;-56
2022/10/31 06:39:14;;;;;;;30.50;14.85;;;;;;;12.63;93.80;102028.72;5026942;28;20037;-53
2022/10/31 06:41:39;;;;;;;25.38;14.63;;;;;;;12.59;93.70;102032.88;5027384;28;21121;-55
2022/10/31 06:44:06;;;;;;;27.10;15.35;;;;;;;12.58;94.15;102036.28;5027922;28;20036;-56
2022/10/31 06:46:31;;;;;;;28.35;15.48;;;;;;;12.58;94.61;102025.09;5034339;28;20033;-56
2022/10/31 06:48:56;;;;;;;29.90;15.70;;;;;;;12.57;94.41;102026.78;5039908;28;20430;-56
2022/10/31 06:51:22;;;;;;;30.52;15.82;;;;;;;12.56;94.58;102032.78;5046499;28;20033;-55
2022/10/31 06:53:47;;;;;;;30.83;16.15;;;;;;;12.54;95.07;102029.22;5024643;28;20041;-56
2022/10/31 06:56:12;;;;;;;26.17;15.38;;;;;;;12.54;95.28;102025.78;5027647;28;20052;-54
2022/10/31 06:58:38;;;;;;;31.05;15.75;;;;;;;12.54;95.89;102029.22;5030048;28;20057;-55
2022/10/31 07:01:03;;;;;;;32.85;16.20;;;;;;;12.51;95.93;102029.13;5029354;28;20037;-57
2022/10/31 07:03:28;;;;;;;29.30;15.70;;;;;;;12.58;96.18;102025.09;5025396;28;20034;-56
2022/10/31 07:05:57;;;;;;;23.65;15.85;;;;;;;12.58;96.26;102031.13;5030738;28;20033;-55
2022/10/31 07:08:23;;;;;;;24.52;14.90;;;;;;;12.55;96.31;102020.66;5026746;28;20120;-56
2022/10/31 07:10:54;;;;;;;25.05;15.10;;;;;;;12.56;96.62;102027.63;5032308;28;20072;-56
2022/10/31 07:13:26;;;;;;;23.50;15.50;;;;;;;12.54;96.87;102020.63;5027055;28;20030;-55
2022/10/31 07:15:54;;;;;;;23.50;15.70;;;;;;;12.59;96.83;102026.84;5030466;28;20358;-55
2022/10/31 07:18:20;;;;;;;29.75;15.82;;;;;;;12.60;96.83;102028.59;5039296;28;20388;-56
2022/10/31 07:20:45;;;;;;;29.90;15.80;;;;;;;12.64;97.12;102035.63;5034148;28;20025;-55
2022/10/31 07:23:11;;;;;;;24.17;16.00;;;;;;;12.65;97.16;102031.34;5034533;28;20034;-56
2022/10/31 07:25:37;;;;;;;21.95;15.55;;;;;;;12.66;97.18;102033.97;5027663;28;20044;-56
2022/10/31 07:28:03;;;;;;;24.00;15.90;;;;;;;12.65;97.45;102028.78;5029763;28;20033;-56
2022/10/31 07:30:28;;;;;;;23.00;15.10;;;;;;;12.74;97.06;102032.59;5028805;28;21034;-55
2022/10/31 07:32:55;;;;;;;22.48;15.43;;;;;;;12.74;97.18;102031.69;5027241;28;20029;-54
2022/10/31 07:35:25;;;;;;;24.55;15.07;;;;;;;12.75;97.44;102026.59;5023814;28;20125;-56
2022/10/31 07:37:51;;;;;;;21.20;14.30;;;;;;;12.82;97.44;102022.56;5027299;28;20083;-56
2022/10/31 07:40:18;;;;;;;21.00;15.15;;;;;;;12.82;97.56;102030.28;5024844;28;20029;-55
2022/10/31 07:42:45;;;;;;;19.70;13.93;;;;;;;12.85;97.51;102031.28;5026839;28;20120;-56
2022/10/31 07:45:14;;;;;;;20.92;15.25;;;;;;;12.92;98.01;102036.66;5028161;28;20143;-54
2022/10/31 07:47:46;;;;;;;19.27;15.40;;;;;;;12.94;98.09;102038.50;5022481;28;20034;-56
2022/10/31 07:50:14;;;;;;;21.02;16.00;;;;;;;12.96;98.25;102039.41;5029116;28;20056;-55
2022/10/31 07:52:39;;;;;;;20.83;15.45;;;;;;;12.94;98.47;102032.47;5026365;28;20037;-55
2022/10/31 07:55:06;;;;;;;22.15;15.27;;;;;;;13.02;98.68;102039.66;5026138;28;20037;-55
2022/10/31 07:57:32;;;;;;;25.38;15.75;;;;;;;13.01;98.88;102049.94;5029286;28;20057;-56
2022/10/31 07:59:57;;;;;;;24.45;16.15;;;;;;;13.06;99.16;102048.41;5027519;28;20061;-54
2022/10/31 08:02:23;;;;;;;21.65;16.33;;;;;;;13.07;99.51;102051.03;5027435;28;20038;-55
2022/10/31 08:04:49;;;;;;;21.80;16.55;;;;;;;13.12;99.79;102051.19;5027185;28;20092;-56
2022/10/31 08:07:14;;;;;;;25.52;16.90;;;;;;;13.12;100.00;102044.34;5035661;28;20481;-56
2022/10/31 08:09:40;;;;;;;25.73;17.98;;;;;;;13.20;100.00;102047.19;5039498;28;20030;-56
2022/10/31 08:12:05;;;;;;;28.60;18.15;;;;;;;13.22;100.00;102048.16;5032767;28;20050;-56
2022/10/31 08:14:30;;;;;;;27.10;19.13;;;;;;;13.26;100.00;102042.28;5041153;28;20393;-56
2022/10/31 08:16:56;;;;;;;27.90;19.90;;;;;;;13.31;100.00;102045.91;5026020;28;20038;-55
2022/10/31 08:19:22;;;;;;;36.92;20.42;;;;;;;13.36;100.00;102048.66;5032756;28;20033;-55
2022/10/31 08:21:51;;;;;;;29.75;21.63;;;;;;;13.44;100.00;102043.75;5030987;28;20029;-54
2022/10/31 08:24:16;;;;;;;32.03;20.58;;;;;;;13.49;100.00;102039.63;5030750;28;20029;-56
2022/10/31 08:26:41;;;;;;;30.92;21.02;;;;;;;13.54;100.00;102030.34;5032132;28;20581;-56
2022/10/31 08:29:07;;;;;;;33.88;22.15;;;;;;;13.58;100.00;102035.66;5029478;28;20053;-56
2022/10/31 08:31:32;;;;;;;33.72;21.98;;;;;;;13.61;100.00;102033.19;5027444;28;20040;-56
2022/10/31 08:33:57;;;;;;;36.92;23.75;;;;;;;13.64;100.00;102028.09;5026057;28;20041;-56
2022/10/31 08:36:23;;;;;;;39.42;23.75;;;;;;;13.66;100.00;102030.75;5038496;28;20056;-56
2022/10/31 08:38:48;;;;;;;39.38;24.80;;;;;;;13.67;100.00;102027.34;5035235;28;20037;-56
2022/10/31 08:41:14;;;;;;;32.88;23.52;;;;;;;13.68;100.00;102042.03;5038402;28;20496;-56
2022/10/31 08:43:39;;;;;;;38.85;25.02;;;;;;;13.69;100.00;102033.44;5043401;28;20493;-56
2022/10/31 08:46:05;;;;;;;33.33;24.65;;;;;;;13.71;100.00;102026.63;5039694;28;20120;-56
2022/10/31 08:48:31;;;;;;;40.70;26.50;;;;;;;13.74;100.00;102023.25;5049980;28;20032;-54
2022/10/31 08:50:58;;;;;;;42.50;27.13;;;;;;;13.74;100.00;102018.09;5023848;28;20029;-56
2022/10/31 08:53:23;;;;;;;38.38;26.05;;;;;;;13.76;100.00;101993.16;5023244;28;21037;-56
2022/10/31 08:55:48;;;;;;;39.03;26.65;;;;;;;13.75;100.00;101976.75;5029643;28;20108;-56
2022/10/31 08:58:19;;;;;;;40.03;25.38;;;;;;;13.77;100.00;101977.72;5028690;28;20482;-56
2022/10/31 09:00:46;;;;;;;41.13;26.23;;;;;;;13.82;100.00;101978.72;5029507;28;20037;-56
2022/10/31 09:03:14;;;;;;;39.85;23.45;;;;;;;13.85;100.00;101983.13;5029237;28;20509;-56
2022/10/31 09:05:40;;;;;;;36.60;23.42;;;;;;;13.86;100.00;101990.94;5033186;28;20485;-56
2022/10/31 09:08:06;;;;;;;37.92;23.58;;;;;;;13.89;100.00;102001.38;5027559;28;20045;-56
2022/10/31 09:10:34;;;;;;;40.90;23.42;;;;;;;13.92;100.00;101998.00;5028150;28;20037;-55
2022/10/31 09:13:06;;;;;;;36.00;22.98;;;;;;;13.93;100.00;102005.81;5025471;28;20481;-56
2022/10/31 09:15:33;;;;;;;38.65;23.73;;;;;;;13.97;100.00;102004.22;5033219;28;20031;-56
2022/10/31 09:17:59;;;;;;;35.47;21.73;;;;;;;13.98;100.00;102003.38;5034598;28;20025;-56
2022/10/31 09:20:24;;;;;;;37.47;22.95;;;;;;;13.99;100.00;101993.91;5032614;28;20447;-56
2022/10/31 09:30:35;;;;;;;36.13;23.30;;;;;;;14.09;100.00;101993.38;3423612;26;20063;-65
2022/10/31 09:33:11;;;;;;;34.28;22.17;;;;;;;14.12;100.00;101981.41;5004472;28;20041;-65
2022/10/31 09:35:37;;;;;;;40.50;24.08;;;;;;;14.13;100.00;101980.56;5017179;28;20029;-65
2022/10/31 09:38:16;;;;;;;34.33;23.15;;;;;;;14.17;100.00;101960.88;4988489;28;20240;-66
2022/10/31 09:41:02;;;;;;;35.75;22.65;;;;;;;14.17;100.00;101956.56;5025102;28;20017;-66
2022/10/31 09:43:43;;;;;;;32.28;22.50;;;;;;;14.19;100.00;101949.72;5026389;28;20411;-66
2022/10/31 09:46:25;;;;;;;33.75;22.55;;;;;;;14.24;100.00;101944.69;5029868;28;20087;-67
2022/10/31 09:49:13;;;;;;;38.97;22.17;;;;;;;14.24;100.00;101944.69;5010646;28;20025;-66
2022/10/31 09:51:49;;;;;;;32.07;21.73;;;;;;;14.27;100.00;101941.34;5022827;28;20399;-65
2022/10/31 09:54:20;;;;;;;34.08;22.33;;;;;;;14.31;100.00;101953.50;5025968;28;20025;-65
2022/10/31 09:56:46;;;;;;;33.95;22.63;;;;;;;14.29;100.00;101950.88;5027469;28;20080;-65
2022/10/31 09:59:31;;;;;;;37.85;22.65;;;;;;;14.32;100.00;101957.84;5027643;28;20075;-66
2022/10/31 10:02:01;;;;;;;35.97;22.17;;;;;;;14.34;100.00;101951.91;5024423;28;20416;-66
2022/10/31 10:04:46;;;;;;;35.97;21.80;;;;;;;14.36;100.00;101941.59;5024837;28;20656;-65
2022/10/31 10:07:49;;;;;;;35.05;21.13;;;;;;;14.39;100.00;101932.22;5024085;28;20065;-65
2022/10/31 10:10:27;;;;;;;32.85;21.15;;;;;;;14.42;100.00;101945.25;5020216;28;20029;-66
2022/10/31 10:13:38;;;;;;;36.30;22.42;;;;;;;14.43;100.00;101931.47;5006222;28;20573;-66
2022/10/31 10:16:17;;;;;;;34.75;21.48;;;;;;;14.44;100.00;101909.97;4940456;28;20042;-66
2022/10/31 10:18:51;;;;;;;;;;;;;;;14.56;100.00;101911.16;5004868;28;20034;-66
2022/10/31 10:21:42;;;;;;;38.70;22.67;;;;;;;14.54;100.00;101900.75;5004124;28;19914;-66
2022/10/31 10:24:44;;;;;;;41.47;24.15;;;;;;;14.63;100.00;101887.22;5004568;28;20036;-66
2022/10/31 10:27:59;;;;;;;40.45;23.63;;;;;;;14.66;100.00;101897.63;5002917;28;20037;-67
2022/10/31 10:30:46;;;;;;;37.42;24.15;;;;;;;14.69;100.00;101898.63;5001753;28;20632;-66
2022/10/31 10:33:24;;;;;;;40.60;24.13;;;;;;;14.70;100.00;101878.78;5003329;28;20029;-65
2022/10/31 10:35:57;;;;;;;49.78;25.10;;;;;;;14.73;100.00;101871.06;5004650;28;20018;-66
2022/10/31 10:38:22;;;;;;;42.15;23.95;;;;;;;14.76;100.00;101868.59;5003318;28;20037;-66
2022/10/31 10:40:48;;;;;;;44.60;25.13;;;;;;;14.77;100.00;101888.47;5003012;28;20034;-66
2022/10/31 10:43:23;;;;;;;47.85;26.13;;;;;;;14.78;100.00;101884.16;5004111;28;20040;-66
2022/10/31 10:49:06;;;;;;;43.92;25.52;;;;;;;14.86;100.00;101891.28;5007780;28;20123;-66
2022/10/31 10:51:40;;;;;;;47.03;26.75;;;;;;;14.90;100.00;101890.53;5007024;28;20111;-66
2022/10/31 10:54:36;;;;;;;44.35;26.23;;;;;;;14.91;100.00;101897.47;4985634;28;20022;-66
2022/10/31 10:57:11;;;;;;;47.58;26.80;;;;;;;14.95;100.00;101886.34;5003998;28;20053;-66
2022/10/31 10:59:37;;;;;;;43.67;26.60;;;;;;;14.96;100.00;101882.06;5003023;28;20037;-66
2022/10/31 11:02:03;;;;;;;45.60;26.33;;;;;;;15.00;100.00;101873.53;5001725;28;20049;-66
2022/10/31 11:04:34;;;;;;;48.85;27.80;;;;;;;15.03;100.00;101855.47;5001733;28;20042;-66
2022/10/31 11:07:09;;;;;;;41.55;26.85;;;;;;;15.06;100.00;101849.50;5002289;28;20026;-66
2022/10/31 11:09:36;;;;;;;48.70;26.83;;;;;;;15.10;100.00;101854.78;5004029;28;20021;-66
2022/10/31 11:12:16;;;;;;;46.03;26.95;;;;;;;15.14;100.00;101850.56;5007113;28;20038;-66
2022/10/31 11:15:06;;;;;;;44.33;26.90;;;;;;;15.16;100.00;101857.53;5004891;28;20461;-66
2022/10/31 11:17:39;;;;;;;46.15;28.08;;;;;;;15.19;100.00;101857.63;5000632;28;20057;-66
2022/10/31 11:20:14;;;;;;;46.53;27.98;;;;;;;15.21;100.00;101855.94;4987840;28;20022;-66
2022/10/31 11:22:44;;;;;;;47.92;27.10;;;;;;;15.20;100.00;101842.94;5003192;28;20108;-66
2022/10/31 11:25:18;;;;;;;48.60;27.85;;;;;;;15.25;100.00;101834.44;5005558;28;20062;-66
2022/10/31 11:27:44;;;;;;;49.45;28.88;;;;;;;15.29;100.00;101838.00;5002797;28;20030;-66
2022/10/31 11:30:11;;;;;;;48.85;29.50;;;;;;;15.34;100.00;101827.72;5003084;28;20522;-67